sensor_id;sensor_type;location;lat;lon;timestamp;P1;durP1;ratioP1;P2;durP2;ratioP2
64242;SDS011;50573;51.512;5.386;2023-04-03T00:09:12;17.25;;;9.63;;
64242;SDS011;50573;51.512;5.386;2023-04-03T00:19:16;15.80;;;11.30;;
64242;SDS011;50573;51.512;5.386;2023-04-03T00:29:19;28.95;;;14.07;;
64242;SDS011;50573;51.512;5.386;2023-04-03T00:39:24;18.40;;;10.98;;
64242;SDS011;50573;51.512;5.386;2023-04-03T00:49:27;15.88;;;11.65;;
64242;SDS011;50573;51.512;5.386;2023-04-03T00:59:33;18.50;;;11.70;;
64242;SDS011;50573;51.512;5.386;2023-04-03T01:09:38;18.00;;;10.70;;
64242;SDS011;50573;51.512;5.386;2023-04-03T01:19:43;15.77;;;9.93;;
64242;SDS011;50573;51.512;5.386;2023-04-03T01:29:59;17.88;;;12.63;;
64242;SDS011;50573;51.512;5.386;2023-04-03T01:40:05;16.97;;;11.63;;
64242;SDS011;50573;51.512;5.386;2023-04-03T01:50:09;25.65;;;14.98;;
64242;SDS011;50573;51.512;5.386;2023-04-03T02:00:14;24.08;;;13.57;;
64242;SDS011;50573;51.512;5.386;2023-04-03T02:10:18;17.55;;;11.82;;
64242;SDS011;50573;51.512;5.386;2023-04-03T02:20:23;23.92;;;12.35;;
64242;SDS011;50573;51.512;5.386;2023-04-03T02:30:26;19.35;;;11.43;;
64242;SDS011;50573;51.512;5.386;2023-04-03T02:40:30;21.35;;;11.63;;
64242;SDS011;50573;51.512;5.386;2023-04-03T02:50:34;17.95;;;12.13;;
64242;SDS011;50573;51.512;5.386;2023-04-03T03:00:38;19.50;;;11.40;;
64242;SDS011;50573;51.512;5.386;2023-04-03T03:10:42;17.23;;;11.65;;
64242;SDS011;50573;51.512;5.386;2023-04-03T03:20:48;19.27;;;11.43;;
64242;SDS011;50573;51.512;5.386;2023-04-03T03:30:54;18.98;;;11.18;;
64242;SDS011;50573;51.512;5.386;2023-04-03T03:40:59;19.60;;;9.40;;
64242;SDS011;50573;51.512;5.386;2023-04-03T03:51:04;12.02;;;7.72;;
64242;SDS011;50573;51.512;5.386;2023-04-03T04:01:12;12.77;;;8.52;;
64242;SDS011;50573;51.512;5.386;2023-04-03T04:11:20;15.02;;;8.80;;
64242;SDS011;50573;51.512;5.386;2023-04-03T04:21:26;11.38;;;6.90;;
64242;SDS011;50573;51.512;5.386;2023-04-03T04:31:29;10.30;;;5.90;;
64242;SDS011;50573;51.512;5.386;2023-04-03T04:41:33;12.80;;;6.25;;
64242;SDS011;50573;51.512;5.386;2023-04-03T04:51:38;9.50;;;5.47;;
64242;SDS011;50573;51.512;5.386;2023-04-03T05:01:57;10.88;;;4.85;;
64242;SDS011;50573;51.512;5.386;2023-04-03T05:12:01;16.92;;;5.50;;
64242;SDS011;50573;51.512;5.386;2023-04-03T05:22:13;6.90;;;3.70;;
64242;SDS011;50573;51.512;5.386;2023-04-03T05:42:24;12.43;;;4.63;;
64242;SDS011;50573;51.512;5.386;2023-04-03T06:02:33;5.60;;;2.60;;
64242;SDS011;50573;51.512;5.386;2023-04-03T06:12:37;8.57;;;3.53;;
64242;SDS011;50573;51.512;5.386;2023-04-03T06:22:42;8.90;;;3.45;;
64242;SDS011;50573;51.512;5.386;2023-04-03T06:32:45;10.77;;;3.63;;
64242;SDS011;50573;51.512;5.386;2023-04-03T06:42:50;6.35;;;3.75;;
64242;SDS011;50573;51.512;5.386;2023-04-03T06:52:54;8.80;;;3.33;;
64242;SDS011;50573;51.512;5.386;2023-04-03T07:02:58;10.32;;;3.55;;
64242;SDS011;50573;51.512;5.386;2023-04-03T07:13:02;9.35;;;3.20;;
64242;SDS011;50573;51.512;5.386;2023-04-03T07:23:06;10.88;;;3.63;;
64242;SDS011;50573;51.512;5.386;2023-04-03T07:33:09;8.77;;;3.07;;
64242;SDS011;50573;51.512;5.386;2023-04-03T07:43:14;11.90;;;3.17;;
64242;SDS011;50573;51.512;5.386;2023-04-03T07:53:17;9.45;;;3.15;;
64242;SDS011;50573;51.512;5.386;2023-04-03T08:03:22;9.93;;;3.15;;
64242;SDS011;50573;51.512;5.386;2023-04-03T08:13:26;11.93;;;3.40;;
64242;SDS011;50573;51.512;5.386;2023-04-03T08:23:30;9.05;;;2.65;;
64242;SDS011;50573;51.512;5.386;2023-04-03T08:33:33;6.83;;;2.50;;
64242;SDS011;50573;51.512;5.386;2023-04-03T08:43:41;6.97;;;1.98;;
64242;SDS011;50573;51.512;5.386;2023-04-03T08:53:56;6.55;;;2.30;;
64242;SDS011;50573;51.512;5.386;2023-04-03T09:04:09;5.95;;;1.80;;
64242;SDS011;50573;51.512;5.386;2023-04-03T09:14:15;7.15;;;1.67;;
64242;SDS011;50573;51.512;5.386;2023-04-03T09:24:27;4.57;;;1.40;;
64242;SDS011;50573;51.512;5.386;2023-04-03T09:34:35;3.83;;;1.35;;
64242;SDS011;50573;51.512;5.386;2023-04-03T09:44:40;4.20;;;1.20;;
64242;SDS011;50573;51.512;5.386;2023-04-03T09:54:44;3.55;;;1.05;;
64242;SDS011;50573;51.512;5.386;2023-04-03T10:04:49;2.97;;;1.00;;
64242;SDS011;50573;51.512;5.386;2023-04-03T10:15:11;2.25;;;1.10;;
64242;SDS011;50573;51.512;5.386;2023-04-03T10:25:17;2.75;;;1.30;;
64242;SDS011;50573;51.512;5.386;2023-04-03T10:35:32;5.07;;;1.05;;
64242;SDS011;50573;51.512;5.386;2023-04-03T10:45:49;3.42;;;1.20;;
64242;SDS011;50573;51.512;5.386;2023-04-03T10:56:01;4.10;;;1.23;;
64242;SDS011;50573;51.512;5.386;2023-04-03T11:06:13;4.10;;;1.20;;
64242;SDS011;50573;51.512;5.386;2023-04-03T11:16:20;2.08;;;0.95;;
64242;SDS011;50573;51.512;5.386;2023-04-03T11:26:29;4.75;;;1.30;;
64242;SDS011;50573;51.512;5.386;2023-04-03T11:36:39;3.90;;;1.35;;
64242;SDS011;50573;51.512;5.386;2023-04-03T11:46:55;3.92;;;1.00;;
64242;SDS011;50573;51.512;5.386;2023-04-03T11:57:22;4.88;;;0.90;;
64242;SDS011;50573;51.512;5.386;2023-04-03T12:07:55;1.20;;;0.65;;
64242;SDS011;50573;51.512;5.386;2023-04-03T12:29:02;5.07;;;1.20;;
64242;SDS011;50573;51.512;5.386;2023-04-03T12:39:23;2.17;;;1.20;;
64242;SDS011;50573;51.512;5.386;2023-04-03T12:49:41;5.30;;;1.52;;
64242;SDS011;50573;51.512;5.386;2023-04-03T12:59:46;5.63;;;1.40;;
64242;SDS011;50573;51.512;5.386;2023-04-03T13:09:58;2.50;;;1.40;;
64242;SDS011;50573;51.512;5.386;2023-04-03T13:20:09;2.25;;;1.20;;
64242;SDS011;50573;51.512;5.386;2023-04-03T13:30:20;9.10;;;2.15;;
64242;SDS011;50573;51.512;5.386;2023-04-03T13:40:26;7.00;;;1.80;;
64242;SDS011;50573;51.512;5.386;2023-04-03T13:50:56;5.28;;;1.88;;
64242;SDS011;50573;51.512;5.386;2023-04-03T14:01:17;7.07;;;1.45;;
64242;SDS011;50573;51.512;5.386;2023-04-03T14:11:24;2.72;;;1.67;;
64242;SDS011;50573;51.512;5.386;2023-04-03T14:21:31;3.67;;;1.73;;
64242;SDS011;50573;51.512;5.386;2023-04-03T14:31:41;5.82;;;2.00;;
64242;SDS011;50573;51.512;5.386;2023-04-03T14:41:49;5.50;;;2.33;;
64242;SDS011;50573;51.512;5.386;2023-04-03T14:51:57;8.95;;;2.45;;
64242;SDS011;50573;51.512;5.386;2023-04-03T15:02:05;5.13;;;1.90;;
64242;SDS011;50573;51.512;5.386;2023-04-03T15:12:26;6.90;;;2.22;;
64242;SDS011;50573;51.512;5.386;2023-04-03T15:22:30;5.22;;;2.10;;
64242;SDS011;50573;51.512;5.386;2023-04-03T15:32:35;7.10;;;2.03;;
64242;SDS011;50573;51.512;5.386;2023-04-03T15:42:38;4.90;;;1.70;;
64242;SDS011;50573;51.512;5.386;2023-04-03T15:52:46;3.55;;;1.75;;
64242;SDS011;50573;51.512;5.386;2023-04-03T16:02:54;6.72;;;2.08;;
64242;SDS011;50573;51.512;5.386;2023-04-03T16:13:02;5.03;;;1.40;;
64242;SDS011;50573;51.512;5.386;2023-04-03T16:23:09;6.72;;;2.30;;
64242;SDS011;50573;51.512;5.386;2023-04-03T16:33:21;6.70;;;2.90;;
64242;SDS011;50573;51.512;5.386;2023-04-03T16:43:25;9.38;;;2.80;;
64242;SDS011;50573;51.512;5.386;2023-04-03T16:53:30;4.00;;;2.00;;
64242;SDS011;50573;51.512;5.386;2023-04-03T17:03:42;7.55;;;2.40;;
64242;SDS011;50573;51.512;5.386;2023-04-03T17:13:53;4.28;;;1.80;;
64242;SDS011;50573;51.512;5.386;2023-04-03T17:24:00;6.15;;;2.10;;
64242;SDS011;50573;51.512;5.386;2023-04-03T17:34:08;8.63;;;2.67;;
64242;SDS011;50573;51.512;5.386;2023-04-03T17:44:13;5.57;;;2.65;;
64242;SDS011;50573;51.512;5.386;2023-04-03T17:54:23;8.80;;;2.72;;
64242;SDS011;50573;51.512;5.386;2023-04-03T18:04:27;12.77;;;2.90;;
64242;SDS011;50573;51.512;5.386;2023-04-03T18:14:34;8.52;;;2.83;;
64242;SDS011;50573;51.512;5.386;2023-04-03T18:24:43;5.90;;;2.80;;
64242;SDS011;50573;51.512;5.386;2023-04-03T18:34:48;5.90;;;2.72;;
64242;SDS011;50573;51.512;5.386;2023-04-03T18:44:52;6.25;;;3.05;;
64242;SDS011;50573;51.512;5.386;2023-04-03T18:54:59;11.38;;;3.47;;
64242;SDS011;50573;51.512;5.386;2023-04-03T19:05:02;16.07;;;5.63;;
64242;SDS011;50573;51.512;5.386;2023-04-03T19:15:08;20.00;;;7.60;;
64242;SDS011;50573;51.512;5.386;2023-04-03T19:25:12;11.63;;;3.35;;
64242;SDS011;50573;51.512;5.386;2023-04-03T19:35:17;7.63;;;2.85;;
64242;SDS011;50573;51.512;5.386;2023-04-03T19:55:24;11.38;;;3.00;;
64242;SDS011;50573;51.512;5.386;2023-04-03T20:05:31;7.47;;;3.67;;
64242;SDS011;50573;51.512;5.386;2023-04-03T20:15:36;16.98;;;5.97;;
64242;SDS011;50573;51.512;5.386;2023-04-03T20:25:42;9.32;;;4.35;;
64242;SDS011;50573;51.512;5.386;2023-04-03T20:36:03;8.45;;;4.20;;
64242;SDS011;50573;51.512;5.386;2023-04-03T20:46:07;17.42;;;4.40;;
64242;SDS011;50573;51.512;5.386;2023-04-03T20:56:12;8.37;;;3.30;;
64242;SDS011;50573;51.512;5.386;2023-04-03T21:27:03;10.10;;;3.55;;
64242;SDS011;50573;51.512;5.386;2023-04-03T21:37:06;7.67;;;3.17;;
64242;SDS011;50573;51.512;5.386;2023-04-03T21:47:13;8.52;;;2.95;;
64242;SDS011;50573;51.512;5.386;2023-04-03T21:57:16;4.27;;;2.07;;
64242;SDS011;50573;51.512;5.386;2023-04-03T22:07:23;12.77;;;4.00;;
64242;SDS011;50573;51.512;5.386;2023-04-03T22:17:28;7.40;;;3.20;;
64242;SDS011;50573;51.512;5.386;2023-04-03T22:27:33;6.78;;;3.78;;
64242;SDS011;50573;51.512;5.386;2023-04-03T22:37:36;9.80;;;3.50;;
64242;SDS011;50573;51.512;5.386;2023-04-03T22:47:41;10.65;;;3.17;;
64242;SDS011;50573;51.512;5.386;2023-04-03T23:07:48;11.05;;;4.22;;
64242;SDS011;50573;51.512;5.386;2023-04-03T23:17:51;9.15;;;3.80;;
64242;SDS011;50573;51.512;5.386;2023-04-03T23:27:56;9.90;;;3.50;;
64242;SDS011;50573;51.512;5.386;2023-04-03T23:37:59;11.37;;;4.70;;
64242;SDS011;50573;51.512;5.386;2023-04-03T23:48:04;14.23;;;4.60;;
64242;SDS011;50573;51.512;5.386;2023-04-03T23:58:07;12.93;;;4.05;;
